createdAt,value
2022-09-16T00:01:31.210Z,16.45
2022-09-16T00:03:57.756Z,16.37
2022-09-16T00:06:30.027Z,16.70
2022-09-16T00:08:58.665Z,16.58
2022-09-16T00:11:25.168Z,16.19
2022-09-16T00:13:51.594Z,16.27
2022-09-16T00:16:24.617Z,17.02
2022-09-16T00:18:59.762Z,16.48
2022-09-16T00:21:28.258Z,16.61
2022-09-16T00:23:56.162Z,16.99
2022-09-16T00:26:23.098Z,16.10
2022-09-16T00:28:50.643Z,16.42
2022-09-16T00:31:17.749Z,17.02
2022-09-16T00:33:44.178Z,16.48
2022-09-16T00:36:12.369Z,17.08
2022-09-16T00:38:39.568Z,17.10
2022-09-16T00:41:07.152Z,17.08
2022-09-16T00:43:50.827Z,17.07
2022-09-16T00:46:21.285Z,17.13
2022-09-16T00:48:48.000Z,16.44
2022-09-16T00:51:16.185Z,16.64
2022-09-16T00:53:49.673Z,16.61
2022-09-16T00:56:21.353Z,17.14
2022-09-16T00:58:55.265Z,16.59
2022-09-16T01:01:22.420Z,16.45
2022-09-16T01:03:54.019Z,16.52
2022-09-16T01:06:22.895Z,16.62
2022-09-16T01:08:50.554Z,16.57
2022-09-16T01:11:17.097Z,16.94
2022-09-16T01:13:45.832Z,16.67
2022-09-16T01:16:41.352Z,17.22
2022-09-16T01:19:34.482Z,17.12
2022-09-16T01:22:37.100Z,17.10
2022-09-16T01:25:31.414Z,16.42
2022-09-16T01:28:20.326Z,17.20
2022-09-16T01:30:59.565Z,16.69
2022-09-16T01:33:46.353Z,16.75
2022-09-16T01:36:25.495Z,17.21
2022-09-16T01:39:12.567Z,16.56
2022-09-16T01:42:20.881Z,17.11
2022-09-16T01:45:03.087Z,16.82
2022-09-16T01:47:57.494Z,17.12
2022-09-16T01:50:37.399Z,17.10
2022-09-16T01:53:26.375Z,16.54
2022-09-16T01:56:00.511Z,16.61
2022-09-16T01:58:34.934Z,16.97
2022-09-16T02:01:10.589Z,16.33
2022-09-16T02:03:41.735Z,16.59
2022-09-16T02:06:12.238Z,16.46
2022-09-16T02:08:45.925Z,17.05
2022-09-16T02:11:15.764Z,16.91
2022-09-16T02:13:48.270Z,16.43
2022-09-16T02:16:20.790Z,16.26
2022-09-16T02:18:53.687Z,16.86
2022-09-16T02:21:24.254Z,16.81
2022-09-16T02:23:54.495Z,17.08
2022-09-16T02:26:27.008Z,16.50
2022-09-16T02:28:55.998Z,16.45
2022-09-16T02:31:27.073Z,17.19
2022-09-16T02:34:02.633Z,16.63
2022-09-16T02:36:30.990Z,16.45
2022-09-16T02:39:05.639Z,16.54
2022-09-16T02:41:32.052Z,17.06
2022-09-16T02:43:58.567Z,16.46
2022-09-16T02:46:36.040Z,16.91
2022-09-16T02:49:10.786Z,16.63
2022-09-16T02:51:41.294Z,16.26
2022-09-16T02:54:19.967Z,16.95
2022-09-16T02:56:46.506Z,16.62
2022-09-16T02:59:13.468Z,16.91
2022-09-16T03:01:43.200Z,16.15
2022-09-16T03:04:12.474Z,16.55
2022-09-16T03:06:39.312Z,16.26
2022-09-16T03:09:09.931Z,16.20
2022-09-16T03:12:04.300Z,16.71
2022-09-16T03:14:37.390Z,15.96
2022-09-16T03:17:16.052Z,16.52
2022-09-16T03:20:11.966Z,16.49
2022-09-16T03:23:00.271Z,16.42
2022-09-16T03:25:39.569Z,16.41
2022-09-16T03:28:12.117Z,15.71
2022-09-16T03:30:44.269Z,16.05
2022-09-16T03:33:22.558Z,15.91
2022-09-16T03:35:52.189Z,15.52
2022-09-16T03:38:19.753Z,15.61
2022-09-16T03:40:47.933Z,15.78
2022-09-16T03:43:16.135Z,16.31
2022-09-16T03:45:43.259Z,15.58
2022-09-16T03:48:11.349Z,15.39
2022-09-16T03:50:38.026Z,15.90
2022-09-16T03:53:04.641Z,15.65
2022-09-16T03:55:31.038Z,15.60
2022-09-16T03:57:57.424Z,16.18
2022-09-16T04:00:23.812Z,15.73
2022-09-16T04:02:50.509Z,16.12
2022-09-16T04:05:16.917Z,15.73
2022-09-16T04:07:43.234Z,16.16
2022-09-16T04:10:12.411Z,16.16
2022-09-16T04:12:38.999Z,15.60
2022-09-16T04:15:05.893Z,16.03
2022-09-16T04:17:33.513Z,16.04
2022-09-16T04:20:00.046Z,16.15
2022-09-16T04:22:31.059Z,16.20
2022-09-16T04:24:57.916Z,15.73
2022-09-16T04:27:24.800Z,16.25
2022-09-16T04:29:51.182Z,16.11
2022-09-16T04:32:17.620Z,16.04
2022-09-16T04:34:43.928Z,15.87
2022-09-16T04:37:10.251Z,15.89
2022-09-16T04:39:36.568Z,16.06
2022-09-16T04:42:05.373Z,16.16
2022-09-16T04:44:31.700Z,16.08
2022-09-16T04:46:58.127Z,16.07
2022-09-16T04:49:24.499Z,16.20
2022-09-16T04:51:52.094Z,15.99
2022-09-16T04:54:18.583Z,15.92
2022-09-16T04:56:45.071Z,15.82
2022-09-16T04:59:11.511Z,16.05
2022-09-16T05:01:39.337Z,16.06
2022-09-16T05:04:07.701Z,16.24
2022-09-16T05:06:40.620Z,16.19
2022-09-16T05:09:08.368Z,15.51
2022-09-16T05:11:59.741Z,15.73
2022-09-16T05:14:27.351Z,16.08
2022-09-16T05:16:53.951Z,15.50
2022-09-16T05:19:20.276Z,15.25
2022-09-16T05:21:46.731Z,15.57
2022-09-16T05:24:13.623Z,15.62
2022-09-16T05:26:42.062Z,15.78
2022-09-16T05:29:12.713Z,15.97
2022-09-16T05:31:41.371Z,15.78
2022-09-16T05:34:19.595Z,16.03
2022-09-16T05:36:47.942Z,16.17
2022-09-16T05:39:25.829Z,16.17
2022-09-16T05:41:58.171Z,15.90
2022-09-16T05:44:26.116Z,16.12
2022-09-16T05:46:52.941Z,15.92
2022-09-16T05:49:21.127Z,15.62
2022-09-16T05:51:48.557Z,15.78
2022-09-16T05:54:15.395Z,15.82
2022-09-16T05:56:42.465Z,15.54
2022-09-16T05:59:11.798Z,16.19
2022-09-16T06:01:39.575Z,15.67
2022-09-16T06:04:09.825Z,15.35
2022-09-16T06:06:41.598Z,15.60
2022-09-16T06:09:13.804Z,15.97
2022-09-16T06:11:43.637Z,15.62
2022-09-16T06:14:11.908Z,15.56
2022-09-16T06:16:38.956Z,15.52
2022-09-16T06:19:10.410Z,15.42
2022-09-16T06:21:38.003Z,16.23
2022-09-16T06:24:08.658Z,16.15
2022-09-16T06:26:40.163Z,15.55
2022-09-16T06:29:08.053Z,16.34
2022-09-16T06:31:36.157Z,15.55
2022-09-16T06:34:03.684Z,15.91
2022-09-16T06:36:38.548Z,16.33
2022-09-16T06:39:07.037Z,15.87
2022-09-16T06:41:34.544Z,15.90
2022-09-16T06:44:01.224Z,16.19
2022-09-16T06:46:29.052Z,15.96
2022-09-16T06:48:59.328Z,15.56
2022-09-16T06:51:31.256Z,15.97
2022-09-16T06:54:03.915Z,16.00
2022-09-16T06:56:30.532Z,16.23
2022-09-16T06:58:57.494Z,16.24
2022-09-16T07:01:28.032Z,15.90
2022-09-16T07:03:55.628Z,16.13
2022-09-16T07:06:37.282Z,15.92
2022-09-16T07:09:10.706Z,15.86
2022-09-16T07:11:37.233Z,15.70
2022-09-16T07:14:04.895Z,16.31
2022-09-16T07:16:31.306Z,16.35
2022-09-16T07:19:01.082Z,15.76
2022-09-16T07:21:30.283Z,16.63
2022-09-16T07:23:58.970Z,16.67
2022-09-16T07:26:29.385Z,16.85
2022-09-16T07:28:58.631Z,16.84
2022-09-16T07:31:27.630Z,16.36
2022-09-16T07:34:02.843Z,16.11
2022-09-16T07:36:35.765Z,16.60
2022-09-16T07:39:03.191Z,16.64
2022-09-16T07:41:33.009Z,16.56
2022-09-16T07:44:00.850Z,16.64
2022-09-16T07:46:29.751Z,16.41
2022-09-16T07:48:57.864Z,17.23
2022-09-16T07:51:26.172Z,17.27
2022-09-16T07:53:59.281Z,16.89
2022-09-16T07:56:28.975Z,17.22
2022-09-16T07:58:56.724Z,17.20
2022-09-16T08:01:24.120Z,16.73
2022-09-16T08:03:52.349Z,17.64
2022-09-16T08:06:34.023Z,17.01
2022-09-16T08:09:36.657Z,16.75
2022-09-16T08:11:56.930Z,17.45
2022-09-16T08:14:23.535Z,16.63
2022-09-16T08:16:53.282Z,17.07
2022-09-16T08:19:20.515Z,17.34
2022-09-16T08:21:46.934Z,16.93
2022-09-16T08:24:13.370Z,17.45
2022-09-16T08:26:40.363Z,17.26
2022-09-16T08:29:09.753Z,17.50
2022-09-16T08:31:37.968Z,18.04
2022-09-16T08:34:05.018Z,17.37
2022-09-16T08:36:33.445Z,18.07
2022-09-16T08:39:00.078Z,18.01
2022-09-16T08:41:48.378Z,17.75
2022-09-16T08:44:31.591Z,18.28
2022-09-16T08:47:06.207Z,17.56
2022-09-16T08:49:42.486Z,17.85
2022-09-16T08:52:15.231Z,18.17
2022-09-16T08:54:55.370Z,17.41
2022-09-16T08:57:26.236Z,17.77
2022-09-16T09:00:00.389Z,17.89
2022-09-16T09:02:38.430Z,17.84
2022-09-16T09:05:16.211Z,17.30
2022-09-16T09:07:57.808Z,18.10
2022-09-16T09:10:50.788Z,18.29
2022-09-16T09:13:27.401Z,18.58
2022-09-16T09:16:05.143Z,18.02
2022-09-16T09:18:49.372Z,18.65
2022-09-16T09:21:30.866Z,18.63
2022-09-16T09:24:19.010Z,18.42
2022-09-16T09:27:00.292Z,18.12
2022-09-16T09:29:50.998Z,18.87
2022-09-16T09:32:49.009Z,18.95
2022-09-16T09:35:34.626Z,18.93
2022-09-16T09:38:14.605Z,19.14
2022-09-16T09:40:50.909Z,18.61
2022-09-16T09:43:23.305Z,18.56
2022-09-16T09:46:12.710Z,19.15
2022-09-16T09:48:48.127Z,18.14
2022-09-16T09:51:48.112Z,19.18
2022-09-16T09:54:31.147Z,19.48
2022-09-16T09:57:16.584Z,19.59
2022-09-16T10:00:11.659Z,19.31
2022-09-16T10:02:44.970Z,19.23
2022-09-16T10:05:27.539Z,19.29
2022-09-16T10:07:58.504Z,18.58
2022-09-16T10:10:27.676Z,19.04
2022-09-16T10:12:54.554Z,18.65
2022-09-16T10:15:29.667Z,19.06
2022-09-16T10:18:02.002Z,18.35
2022-09-16T10:20:32.935Z,18.86
2022-09-16T10:23:06.641Z,18.85
2022-09-16T10:25:33.375Z,18.80
2022-09-16T10:28:02.730Z,18.60
2022-09-16T10:30:32.882Z,19.46
2022-09-16T10:33:13.352Z,19.37
2022-09-16T10:35:42.037Z,19.05
2022-09-16T10:38:12.520Z,19.87
2022-09-16T10:40:50.933Z,19.42
2022-09-16T10:43:17.381Z,19.72
2022-09-16T10:45:47.605Z,19.96
2022-09-16T10:48:18.223Z,19.93
2022-09-16T10:50:56.114Z,19.78
2022-09-16T10:53:45.952Z,19.82
2022-09-16T10:56:20.181Z,19.92
2022-09-16T10:58:46.685Z,19.14
2022-09-16T11:01:14.081Z,19.34
2022-09-16T11:03:59.623Z,19.14
2022-09-16T11:06:35.762Z,19.68
2022-09-16T11:09:15.741Z,18.83
2022-09-16T11:11:52.124Z,19.80
2022-09-16T11:14:35.109Z,18.87
2022-09-16T11:17:11.319Z,19.75
2022-09-16T11:19:43.446Z,19.39
2022-09-16T11:22:15.339Z,19.12
2022-09-16T11:25:01.978Z,19.14
2022-09-16T11:27:50.074Z,18.60
2022-09-16T11:30:25.372Z,17.65
2022-09-16T11:33:02.628Z,18.32
2022-09-16T11:35:32.343Z,17.92
2022-09-16T11:38:17.603Z,17.67
2022-09-16T11:40:56.405Z,17.40
2022-09-16T11:44:02.100Z,17.41
2022-09-16T11:47:07.497Z,17.31
2022-09-16T11:49:43.084Z,17.16
2022-09-16T11:52:15.437Z,17.10
2022-09-16T11:55:10.300Z,16.84
2022-09-16T11:57:41.746Z,16.94
2022-09-16T12:00:18.547Z,17.01
2022-09-16T12:03:18.875Z,16.95
2022-09-16T12:05:53.372Z,16.54
2022-09-16T12:08:27.332Z,16.72
2022-09-16T12:10:58.883Z,16.63
2022-09-16T12:13:27.663Z,16.30
2022-09-16T12:16:20.800Z,15.87
2022-09-16T12:18:52.490Z,15.92
2022-09-16T12:21:30.501Z,15.59
2022-09-16T12:24:06.203Z,15.56
2022-09-16T12:26:57.500Z,14.81
2022-09-16T12:29:39.138Z,15.09
2022-09-16T12:32:11.475Z,15.48
2022-09-16T12:34:44.371Z,15.68
2022-09-16T12:37:10.629Z,15.81
2022-09-16T12:39:37.113Z,15.11
2022-09-16T12:42:24.563Z,15.70
2022-09-16T12:45:36.618Z,15.70
2022-09-16T12:48:31.152Z,15.76
2022-09-16T12:51:16.651Z,16.08
2022-09-16T12:53:55.511Z,15.80
2022-09-16T12:56:46.581Z,15.98
2022-09-16T12:59:25.685Z,16.24
2022-09-16T13:02:20.394Z,16.60
2022-09-16T13:04:53.615Z,16.70
2022-09-16T13:07:25.667Z,17.05
2022-09-16T13:10:16.981Z,17.34
2022-09-16T13:12:50.726Z,16.67
2022-09-16T13:15:25.376Z,17.60
2022-09-16T13:17:53.196Z,17.34
2022-09-16T13:20:41.792Z,17.95
2022-09-16T13:23:21.462Z,17.85
2022-09-16T13:25:59.253Z,17.83
2022-09-16T13:28:38.015Z,18.49
2022-09-16T13:31:17.749Z,18.51
2022-09-16T13:33:45.557Z,18.66
2022-09-16T13:36:21.060Z,18.38
2022-09-16T13:38:50.699Z,17.33
2022-09-16T13:41:37.829Z,17.54
2022-09-16T13:44:26.219Z,17.24
2022-09-16T13:46:53.128Z,16.98
2022-09-16T13:49:25.545Z,16.01
2022-09-16T13:51:52.647Z,16.59
2022-09-16T13:54:25.022Z,16.49
2022-09-16T13:56:54.485Z,16.51
2022-09-16T13:59:20.768Z,16.53
2022-09-16T14:02:12.035Z,16.56
2022-09-16T14:05:05.267Z,16.61
2022-09-16T14:07:43.979Z,16.51
2022-09-16T14:10:26.507Z,16.28
2022-09-16T14:12:59.429Z,16.54
2022-09-16T14:15:27.843Z,16.57
2022-09-16T14:17:59.546Z,16.48
2022-09-16T14:20:26.290Z,16.50
2022-09-16T14:23:16.703Z,16.81
2022-09-16T14:25:43.249Z,16.59
2022-09-16T14:28:20.160Z,16.61
2022-09-16T14:30:57.827Z,16.66
2022-09-16T14:33:31.934Z,16.33
2022-09-16T14:36:00.326Z,16.34
2022-09-16T14:38:49.594Z,16.08
2022-09-16T14:41:37.163Z,16.33
2022-09-16T14:44:14.407Z,16.22
2022-09-16T14:46:43.531Z,15.90
2022-09-16T14:49:13.537Z,15.87
2022-09-16T14:51:46.655Z,15.80
2022-09-16T14:54:17.993Z,15.81
2022-09-16T14:57:06.229Z,15.61
2022-09-16T14:59:36.122Z,15.92
2022-09-16T15:02:13.738Z,15.89
2022-09-16T15:04:43.363Z,15.91
2022-09-16T15:07:24.604Z,15.95
2022-09-16T15:09:59.105Z,15.70
2022-09-16T15:12:30.606Z,15.96
2022-09-16T15:14:57.852Z,16.03
2022-09-16T15:17:27.870Z,15.87
2022-09-16T15:19:59.618Z,15.46
2022-09-16T15:22:27.789Z,15.91
2022-09-16T15:24:58.377Z,16.33
2022-09-16T15:27:28.912Z,16.74
2022-09-16T15:29:59.353Z,16.81
2022-09-16T15:32:31.516Z,16.68
2022-09-16T15:35:21.126Z,17.23
2022-09-16T15:37:48.263Z,17.43
2022-09-16T15:40:20.697Z,17.56
2022-09-16T15:43:03.392Z,17.65
2022-09-16T15:45:29.999Z,18.01
2022-09-16T15:48:01.060Z,17.12
2022-09-16T15:50:30.911Z,17.74
2022-09-16T15:53:14.435Z,17.88
2022-09-16T15:55:55.485Z,17.74
2022-09-16T15:58:39.435Z,18.11
2022-09-16T16:01:11.446Z,18.32
2022-09-16T16:03:53.556Z,18.17
2022-09-16T16:06:20.781Z,18.20
2022-09-16T16:08:50.034Z,17.78
2022-09-16T16:11:21.292Z,18.10
2022-09-16T16:13:50.033Z,17.86
2022-09-16T16:16:18.103Z,17.93
2022-09-16T16:18:47.998Z,17.41
2022-09-16T16:21:16.549Z,18.12
2022-09-16T16:23:43.816Z,17.93
2022-09-16T16:26:11.102Z,17.80
2022-09-16T16:28:38.538Z,17.84
2022-09-16T16:31:13.705Z,17.46
2022-09-16T16:33:47.924Z,17.63
2022-09-16T16:36:15.798Z,17.39
2022-09-16T16:38:52.925Z,17.28
2022-09-16T16:41:23.670Z,17.22
2022-09-16T16:43:51.452Z,17.21
2022-09-16T16:46:19.441Z,17.16
2022-09-16T16:48:46.023Z,17.18
2022-09-16T16:51:13.108Z,17.31
2022-09-16T16:53:39.994Z,16.59
2022-09-16T16:56:15.487Z,16.60
2022-09-16T16:58:45.089Z,17.27
2022-09-16T17:01:14.342Z,16.58
2022-09-16T17:03:41.723Z,16.98
2022-09-16T17:06:09.771Z,16.39
2022-09-16T17:08:36.533Z,16.90
2022-09-16T17:11:07.057Z,16.61
2022-09-16T17:13:33.883Z,16.75
2022-09-16T17:16:00.338Z,16.19
2022-09-16T17:18:26.745Z,16.26
2022-09-16T17:20:53.081Z,16.77
2022-09-16T17:23:19.430Z,16.71
2022-09-16T17:25:50.343Z,16.72
2022-09-16T17:28:17.394Z,16.75
2022-09-16T17:30:44.777Z,16.53
2022-09-16T17:33:11.237Z,16.63
2022-09-16T17:35:37.561Z,16.78
2022-09-16T17:38:06.933Z,16.60
2022-09-16T17:40:34.465Z,16.66
2022-09-16T17:43:00.896Z,16.32
2022-09-16T17:45:27.805Z,16.58
2022-09-16T17:47:55.685Z,16.49
2022-09-16T17:50:23.078Z,15.89
2022-09-16T17:52:49.689Z,16.41
2022-09-16T17:55:16.069Z,16.19
2022-09-16T17:57:42.458Z,16.23
2022-09-16T18:00:09.180Z,15.67
2022-09-16T18:02:36.060Z,15.81
2022-09-16T18:05:02.649Z,15.42
2022-09-16T18:07:29.066Z,16.10
2022-09-16T18:09:55.421Z,16.11
2022-09-16T18:12:21.735Z,16.01
2022-09-16T18:14:48.488Z,16.06
2022-09-16T18:17:14.998Z,15.96
2022-09-16T18:19:41.338Z,15.88
2022-09-16T18:22:07.754Z,16.04
2022-09-16T18:24:34.123Z,15.33
2022-09-16T18:27:02.411Z,15.93
2022-09-16T18:29:30.896Z,15.48
2022-09-16T18:31:58.184Z,15.89
2022-09-16T18:34:24.710Z,15.39
2022-09-16T18:36:51.061Z,15.54
2022-09-16T18:39:17.602Z,15.55
2022-09-16T18:41:45.471Z,15.42
2022-09-16T18:44:19.528Z,15.64
2022-09-16T18:46:46.749Z,15.62
2022-09-16T18:49:14.692Z,15.47
2022-09-16T18:51:48.557Z,15.50
2022-09-16T18:54:28.443Z,15.38
2022-09-16T18:56:57.093Z,15.39
2022-09-16T18:59:28.267Z,15.55
2022-09-16T19:01:57.249Z,15.51
2022-09-16T19:04:26.705Z,15.46
2022-09-16T19:06:55.067Z,15.41
2022-09-16T19:09:24.074Z,15.56
2022-09-16T19:11:52.722Z,15.32
2022-09-16T19:14:22.293Z,14.85
2022-09-16T19:16:48.662Z,15.35
2022-09-16T19:19:15.425Z,15.21
2022-09-16T19:21:42.844Z,15.15
2022-09-16T19:24:24.239Z,15.17
2022-09-16T19:26:55.128Z,15.29
2022-09-16T19:29:22.418Z,14.31
2022-09-16T19:31:51.867Z,14.87
2022-09-16T19:34:19.591Z,15.22
2022-09-16T19:36:47.146Z,15.06
2022-09-16T19:39:14.296Z,15.12
2022-09-16T19:41:41.852Z,15.02
2022-09-16T19:44:12.749Z,14.93
2022-09-16T19:46:40.357Z,15.11
2022-09-16T19:49:08.232Z,15.17
2022-09-16T19:51:34.595Z,14.79
2022-09-16T19:54:01.737Z,15.14
2022-09-16T19:56:31.685Z,14.21
2022-09-16T19:58:58.304Z,13.88
2022-09-16T20:01:27.568Z,15.03
2022-09-16T20:03:55.157Z,14.87
2022-09-16T20:06:27.755Z,14.69
2022-09-16T20:08:56.815Z,14.92
2022-09-16T20:11:25.678Z,14.84
2022-09-16T20:13:55.136Z,14.95
2022-09-16T20:16:23.564Z,14.69
2022-09-16T20:18:50.650Z,14.66
2022-09-16T20:21:21.238Z,14.80
2022-09-16T20:23:47.960Z,14.42
2022-09-16T20:26:19.639Z,14.73
2022-09-16T20:28:50.108Z,14.21
2022-09-16T20:31:18.763Z,14.52
2022-09-16T20:33:45.182Z,14.75
2022-09-16T20:36:15.295Z,14.65
2022-09-16T20:38:41.955Z,14.03
2022-09-16T20:41:14.371Z,14.59
2022-09-16T20:43:41.877Z,14.05
2022-09-16T20:46:17.321Z,14.66
2022-09-16T20:48:44.940Z,14.46
2022-09-16T20:51:16.709Z,14.60
2022-09-16T20:53:43.928Z,14.69
2022-09-16T20:56:13.240Z,14.66
2022-09-16T20:58:40.126Z,14.09
2022-09-16T21:01:07.784Z,14.66
2022-09-16T21:03:34.770Z,14.50
2022-09-16T21:06:07.183Z,14.62
2022-09-16T21:08:36.864Z,14.55
2022-09-16T21:11:08.028Z,14.59
2022-09-16T21:13:35.710Z,14.56
2022-09-16T21:16:02.394Z,13.78
2022-09-16T21:18:28.998Z,14.74
2022-09-16T21:21:01.852Z,14.60
2022-09-16T21:23:28.931Z,14.58
2022-09-16T21:25:55.407Z,14.43
2022-09-16T21:28:23.331Z,13.89
2022-09-16T21:30:59.599Z,14.34
2022-09-16T21:33:27.126Z,14.64
2022-09-16T21:35:53.803Z,14.39
2022-09-16T21:38:20.785Z,14.10
2022-09-16T21:40:55.029Z,14.43
2022-09-16T21:43:22.428Z,14.33
2022-09-16T21:45:48.919Z,14.59
2022-09-16T21:48:16.283Z,14.41
2022-09-16T21:50:42.813Z,14.43
2022-09-16T21:53:09.151Z,14.23
2022-09-16T21:55:35.635Z,14.33
2022-09-16T21:58:01.967Z,14.20
2022-09-16T22:00:30.199Z,14.46
2022-09-16T22:02:57.035Z,14.36
2022-09-16T22:05:23.976Z,13.57
2022-09-16T22:07:50.328Z,14.17
2022-09-16T22:10:16.981Z,14.23
2022-09-16T22:12:43.788Z,13.77
2022-09-16T22:15:10.465Z,14.29
2022-09-16T22:17:36.827Z,14.11
2022-09-16T22:20:03.575Z,13.70
2022-09-16T22:22:32.343Z,13.98
2022-09-16T22:24:58.694Z,14.23
2022-09-16T22:27:25.224Z,13.25
2022-09-16T22:29:51.793Z,14.16
2022-09-16T22:32:18.124Z,13.61
2022-09-16T22:34:44.512Z,14.16
2022-09-16T22:37:10.890Z,14.16
2022-09-16T22:39:37.264Z,13.65
2022-09-16T22:42:03.810Z,14.17
2022-09-16T22:44:30.722Z,14.18
2022-09-16T22:46:57.117Z,13.20
2022-09-16T22:49:23.528Z,13.99
2022-09-16T22:51:49.975Z,14.08
2022-09-16T22:54:16.596Z,14.17
2022-09-16T22:56:43.930Z,14.22
2022-09-16T22:59:16.783Z,14.01
2022-09-16T23:01:43.600Z,14.16
2022-09-16T23:04:10.199Z,14.04
2022-09-16T23:06:38.277Z,14.22
2022-09-16T23:09:06.610Z,14.19
2022-09-16T23:11:35.042Z,14.04
2022-09-16T23:14:01.687Z,14.04
2022-09-16T23:16:30.915Z,14.22
2022-09-16T23:19:00.296Z,13.22
2022-09-16T23:21:27.229Z,13.95
2022-09-16T23:23:56.577Z,14.15
2022-09-16T23:26:29.923Z,13.99
2022-09-16T23:28:57.962Z,13.91
2022-09-16T23:31:27.389Z,14.14
2022-09-16T23:33:54.320Z,14.11
2022-09-16T23:36:21.259Z,14.22
2022-09-16T23:38:47.972Z,13.78
2022-09-16T23:41:23.291Z,14.40
2022-09-16T23:43:50.304Z,14.26
2022-09-16T23:46:20.015Z,14.34
2022-09-16T23:48:46.845Z,14.16
2022-09-16T23:51:13.985Z,14.11
2022-09-16T23:53:42.284Z,14.32
2022-09-16T23:56:10.957Z,14.39
2022-09-16T23:58:38.428Z,14.34
